sensor_id;sensor_type;location;lat;lon;timestamp;P1;durP1;ratioP1;P2;durP2;ratioP2
45322;SDS011;31382;50.200;8.674;2023-09-18T00:03:31;4.68;;;3.10;;
45322;SDS011;31382;50.200;8.674;2023-09-18T00:08:33;12.65;;;4.05;;
45322;SDS011;31382;50.200;8.674;2023-09-18T00:13:34;5.93;;;3.38;;
45322;SDS011;31382;50.200;8.674;2023-09-18T00:18:36;9.80;;;4.25;;
45322;SDS011;31382;50.200;8.674;2023-09-18T00:23:37;7.82;;;2.67;;
45322;SDS011;31382;50.200;8.674;2023-09-18T00:28:39;7.22;;;3.42;;
45322;SDS011;31382;50.200;8.674;2023-09-18T00:33:40;5.07;;;3.50;;
45322;SDS011;31382;50.200;8.674;2023-09-18T00:38:42;7.40;;;3.17;;
45322;SDS011;31382;50.200;8.674;2023-09-18T00:43:43;7.32;;;3.42;;
45322;SDS011;31382;50.200;8.674;2023-09-18T00:48:45;6.43;;;3.40;;
45322;SDS011;31382;50.200;8.674;2023-09-18T00:53:48;8.05;;;3.78;;
45322;SDS011;31382;50.200;8.674;2023-09-18T00:58:50;9.68;;;3.00;;
45322;SDS011;31382;50.200;8.674;2023-09-18T01:03:53;6.22;;;3.03;;
45322;SDS011;31382;50.200;8.674;2023-09-18T01:08:55;6.95;;;3.30;;
45322;SDS011;31382;50.200;8.674;2023-09-18T01:24:40;7.30;;;2.70;;
45322;SDS011;31382;50.200;8.674;2023-09-18T01:29:45;3.88;;;2.70;;
45322;SDS011;31382;50.200;8.674;2023-09-18T01:34:49;7.07;;;2.85;;
45322;SDS011;31382;50.200;8.674;2023-09-18T01:39:52;5.05;;;3.03;;
45322;SDS011;31382;50.200;8.674;2023-09-18T01:44:54;7.78;;;3.08;;
45322;SDS011;31382;50.200;8.674;2023-09-18T01:49:56;8.82;;;3.20;;
45322;SDS011;31382;50.200;8.674;2023-09-18T01:54:58;7.43;;;3.13;;
45322;SDS011;31382;50.200;8.674;2023-09-18T01:59:59;5.10;;;2.40;;
45322;SDS011;31382;50.200;8.674;2023-09-18T02:05:01;9.23;;;3.15;;
45322;SDS011;31382;50.200;8.674;2023-09-18T02:10:10;6.32;;;2.70;;
45322;SDS011;31382;50.200;8.674;2023-09-18T02:15:13;6.75;;;2.80;;
45322;SDS011;31382;50.200;8.674;2023-09-18T02:20:17;3.03;;;1.80;;
45322;SDS011;31382;50.200;8.674;2023-09-18T02:25:19;4.30;;;2.22;;
45322;SDS011;31382;50.200;8.674;2023-09-18T02:30:21;6.10;;;2.25;;
45322;SDS011;31382;50.200;8.674;2023-09-18T02:35:22;10.23;;;3.70;;
45322;SDS011;31382;50.200;8.674;2023-09-18T02:40:23;12.15;;;4.90;;
45322;SDS011;31382;50.200;8.674;2023-09-18T02:45:25;10.60;;;4.95;;
45322;SDS011;31382;50.200;8.674;2023-09-18T02:50:26;12.38;;;6.07;;
45322;SDS011;31382;50.200;8.674;2023-09-18T02:55:28;7.60;;;4.97;;
45322;SDS011;31382;50.200;8.674;2023-09-18T03:00:30;8.85;;;5.90;;
45322;SDS011;31382;50.200;8.674;2023-09-18T03:05:44;11.55;;;5.05;;
45322;SDS011;31382;50.200;8.674;2023-09-18T03:10:45;10.85;;;5.20;;
45322;SDS011;31382;50.200;8.674;2023-09-18T03:15:47;9.27;;;4.93;;
45322;SDS011;31382;50.200;8.674;2023-09-18T03:20:48;8.93;;;5.50;;
45322;SDS011;31382;50.200;8.674;2023-09-18T03:25:50;9.43;;;5.70;;
45322;SDS011;31382;50.200;8.674;2023-09-18T03:30:52;12.23;;;6.32;;
45322;SDS011;31382;50.200;8.674;2023-09-18T03:35:53;18.60;;;6.20;;
45322;SDS011;31382;50.200;8.674;2023-09-18T03:40:58;10.98;;;6.07;;
45322;SDS011;31382;50.200;8.674;2023-09-18T03:46:04;10.73;;;5.50;;
45322;SDS011;31382;50.200;8.674;2023-09-18T03:51:07;12.33;;;5.50;;
45322;SDS011;31382;50.200;8.674;2023-09-18T03:56:09;13.95;;;6.38;;
45322;SDS011;31382;50.200;8.674;2023-09-18T04:01:11;12.02;;;7.22;;
45322;SDS011;31382;50.200;8.674;2023-09-18T04:06:12;9.93;;;6.15;;
45322;SDS011;31382;50.200;8.674;2023-09-18T04:11:13;10.77;;;6.00;;
45322;SDS011;31382;50.200;8.674;2023-09-18T04:16:15;12.18;;;6.05;;
45322;SDS011;31382;50.200;8.674;2023-09-18T04:21:18;11.45;;;6.22;;
45322;SDS011;31382;50.200;8.674;2023-09-18T04:26:20;13.48;;;6.88;;
45322;SDS011;31382;50.200;8.674;2023-09-18T04:31:21;11.68;;;6.10;;
45322;SDS011;31382;50.200;8.674;2023-09-18T04:36:23;14.07;;;6.38;;
45322;SDS011;31382;50.200;8.674;2023-09-18T04:41:24;9.60;;;6.32;;
45322;SDS011;31382;50.200;8.674;2023-09-18T04:46:26;9.75;;;6.30;;
45322;SDS011;31382;50.200;8.674;2023-09-18T04:51:28;8.32;;;5.53;;
45322;SDS011;31382;50.200;8.674;2023-09-18T04:56:29;16.30;;;7.03;;
45322;SDS011;31382;50.200;8.674;2023-09-18T05:01:31;11.45;;;6.75;;
45322;SDS011;31382;50.200;8.674;2023-09-18T05:06:33;11.65;;;7.47;;
45322;SDS011;31382;50.200;8.674;2023-09-18T05:11:34;12.35;;;6.28;;
45322;SDS011;31382;50.200;8.674;2023-09-18T05:16:37;12.07;;;6.35;;
45322;SDS011;31382;50.200;8.674;2023-09-18T05:21:38;14.50;;;5.80;;
45322;SDS011;31382;50.200;8.674;2023-09-18T05:26:40;7.65;;;4.70;;
45322;SDS011;31382;50.200;8.674;2023-09-18T05:31:41;11.43;;;5.00;;
45322;SDS011;31382;50.200;8.674;2023-09-18T05:36:43;11.25;;;5.55;;
45322;SDS011;31382;50.200;8.674;2023-09-18T05:41:44;11.38;;;5.72;;
45322;SDS011;31382;50.200;8.674;2023-09-18T05:46:45;11.07;;;4.57;;
45322;SDS011;31382;50.200;8.674;2023-09-18T05:51:47;8.27;;;4.72;;
45322;SDS011;31382;50.200;8.674;2023-09-18T05:56:49;8.93;;;5.65;;
45322;SDS011;31382;50.200;8.674;2023-09-18T06:01:51;10.57;;;3.97;;
45322;SDS011;31382;50.200;8.674;2023-09-18T06:06:55;6.95;;;3.45;;
45322;SDS011;31382;50.200;8.674;2023-09-18T06:11:58;12.32;;;3.78;;
45322;SDS011;31382;50.200;8.674;2023-09-18T06:17:01;7.93;;;4.10;;
45322;SDS011;31382;50.200;8.674;2023-09-18T06:22:03;7.75;;;3.67;;
45322;SDS011;31382;50.200;8.674;2023-09-18T06:27:04;10.35;;;4.68;;
45322;SDS011;31382;50.200;8.674;2023-09-18T06:32:06;8.82;;;3.58;;
45322;SDS011;31382;50.200;8.674;2023-09-18T06:37:08;9.52;;;3.72;;
45322;SDS011;31382;50.200;8.674;2023-09-18T06:42:12;8.73;;;3.42;;
45322;SDS011;31382;50.200;8.674;2023-09-18T06:47:13;8.80;;;3.28;;
45322;SDS011;31382;50.200;8.674;2023-09-18T06:52:15;11.45;;;3.47;;
45322;SDS011;31382;50.200;8.674;2023-09-18T06:57:18;11.43;;;3.20;;
45322;SDS011;31382;50.200;8.674;2023-09-18T07:02:19;9.52;;;2.40;;
45322;SDS011;31382;50.200;8.674;2023-09-18T07:07:20;11.40;;;3.42;;
45322;SDS011;31382;50.200;8.674;2023-09-18T07:12:26;8.88;;;1.85;;
45322;SDS011;31382;50.200;8.674;2023-09-18T07:17:29;9.23;;;2.42;;
45322;SDS011;31382;50.200;8.674;2023-09-18T07:22:30;6.78;;;2.97;;
45322;SDS011;31382;50.200;8.674;2023-09-18T07:27:32;9.57;;;2.85;;
45322;SDS011;31382;50.200;8.674;2023-09-18T07:32:34;10.35;;;2.38;;
45322;SDS011;31382;50.200;8.674;2023-09-18T07:37:39;5.80;;;1.73;;
45322;SDS011;31382;50.200;8.674;2023-09-18T07:42:40;8.43;;;1.98;;
45322;SDS011;31382;50.200;8.674;2023-09-18T07:47:41;9.32;;;3.15;;
45322;SDS011;31382;50.200;8.674;2023-09-18T07:52:43;11.77;;;2.63;;
45322;SDS011;31382;50.200;8.674;2023-09-18T07:57:44;7.00;;;1.73;;
45322;SDS011;31382;50.200;8.674;2023-09-18T08:02:46;9.43;;;2.65;;
45322;SDS011;31382;50.200;8.674;2023-09-18T08:07:50;8.40;;;1.83;;
45322;SDS011;31382;50.200;8.674;2023-09-18T08:12:52;5.55;;;1.77;;
45322;SDS011;31382;50.200;8.674;2023-09-18T08:17:54;9.48;;;1.92;;
45322;SDS011;31382;50.200;8.674;2023-09-18T08:22:56;10.20;;;2.05;;
45322;SDS011;31382;50.200;8.674;2023-09-18T08:27:58;11.43;;;1.75;;
45322;SDS011;31382;50.200;8.674;2023-09-18T08:33:00;6.90;;;1.20;;
45322;SDS011;31382;50.200;8.674;2023-09-18T08:38:01;8.45;;;1.85;;
45322;SDS011;31382;50.200;8.674;2023-09-18T08:43:03;11.88;;;1.77;;
45322;SDS011;31382;50.200;8.674;2023-09-18T08:48:06;10.20;;;1.48;;
45322;SDS011;31382;50.200;8.674;2023-09-18T08:53:08;8.13;;;1.50;;
45322;SDS011;31382;50.200;8.674;2023-09-18T08:58:09;11.80;;;1.42;;
45322;SDS011;31382;50.200;8.674;2023-09-18T09:03:11;7.18;;;1.38;;
45322;SDS011;31382;50.200;8.674;2023-09-18T09:08:13;5.43;;;1.00;;
45322;SDS011;31382;50.200;8.674;2023-09-18T09:13:14;7.20;;;1.15;;
45322;SDS011;31382;50.200;8.674;2023-09-18T09:18:30;7.05;;;1.25;;
45322;SDS011;31382;50.200;8.674;2023-09-18T09:23:49;6.10;;;1.13;;
45322;SDS011;31382;50.200;8.674;2023-09-18T09:28:55;6.10;;;0.80;;
45322;SDS011;31382;50.200;8.674;2023-09-18T09:33:57;9.45;;;1.02;;
45322;SDS011;31382;50.200;8.674;2023-09-18T09:38:59;5.30;;;0.75;;
45322;SDS011;31382;50.200;8.674;2023-09-18T09:44:01;6.18;;;0.82;;
45322;SDS011;31382;50.200;8.674;2023-09-18T09:49:05;4.55;;;1.23;;
45322;SDS011;31382;50.200;8.674;2023-09-18T09:54:07;6.53;;;0.70;;
45322;SDS011;31382;50.200;8.674;2023-09-18T09:59:11;3.38;;;0.60;;
45322;SDS011;31382;50.200;8.674;2023-09-18T10:04:14;5.38;;;0.60;;
45322;SDS011;31382;50.200;8.674;2023-09-18T10:09:21;3.92;;;0.40;;
45322;SDS011;31382;50.200;8.674;2023-09-18T10:14:32;2.47;;;0.40;;
45322;SDS011;31382;50.200;8.674;2023-09-18T10:20:01;0.77;;;0.30;;
45322;SDS011;31382;50.200;8.674;2023-09-18T10:25:17;3.63;;;0.60;;
45322;SDS011;31382;50.200;8.674;2023-09-18T10:30:25;6.10;;;0.68;;
45322;SDS011;31382;50.200;8.674;2023-09-18T10:35:30;4.15;;;0.82;;
45322;SDS011;31382;50.200;8.674;2023-09-18T10:40:32;1.83;;;0.20;;
45322;SDS011;31382;50.200;8.674;2023-09-18T10:45:35;1.75;;;0.22;;
45322;SDS011;31382;50.200;8.674;2023-09-18T10:50:37;3.50;;;0.40;;
45322;SDS011;31382;50.200;8.674;2023-09-18T10:55:41;0.88;;;0.30;;
45322;SDS011;31382;50.200;8.674;2023-09-18T11:00:44;2.92;;;0.20;;
45322;SDS011;31382;50.200;8.674;2023-09-18T11:05:46;3.60;;;0.30;;
45322;SDS011;31382;50.200;8.674;2023-09-18T11:11:07;2.17;;;0.20;;
45322;SDS011;31382;50.200;8.674;2023-09-18T11:21:32;1.42;;;0.30;;
45322;SDS011;31382;50.200;8.674;2023-09-18T11:26:35;3.35;;;0.50;;
45322;SDS011;31382;50.200;8.674;2023-09-18T11:31:41;1.08;;;0.20;;
45322;SDS011;31382;50.200;8.674;2023-09-18T11:36:47;2.17;;;0.30;;
45322;SDS011;31382;50.200;8.674;2023-09-18T11:41:49;1.80;;;0.30;;
45322;SDS011;31382;50.200;8.674;2023-09-18T11:46:51;2.38;;;0.32;;
45322;SDS011;31382;50.200;8.674;2023-09-18T11:51:54;2.47;;;0.30;;
45322;SDS011;31382;50.200;8.674;2023-09-18T11:56:56;1.13;;;0.28;;
45322;SDS011;31382;50.200;8.674;2023-09-18T12:01:59;3.78;;;0.40;;
45322;SDS011;31382;50.200;8.674;2023-09-18T12:07:07;2.22;;;0.40;;
45322;SDS011;31382;50.200;8.674;2023-09-18T12:12:10;1.08;;;0.40;;
45322;SDS011;31382;50.200;8.674;2023-09-18T12:17:15;2.60;;;0.50;;
45322;SDS011;31382;50.200;8.674;2023-09-18T12:22:22;2.78;;;0.65;;
45322;SDS011;31382;50.200;8.674;2023-09-18T12:27:25;2.95;;;0.60;;
45322;SDS011;31382;50.200;8.674;2023-09-18T12:32:28;0.35;;;0.20;;
45322;SDS011;31382;50.200;8.674;2023-09-18T12:37:30;2.22;;;0.40;;
45322;SDS011;31382;50.200;8.674;2023-09-18T12:42:32;0.70;;;0.30;;
45322;SDS011;31382;50.200;8.674;2023-09-18T12:47:33;1.35;;;0.40;;
45322;SDS011;31382;50.200;8.674;2023-09-18T12:52:38;3.60;;;0.30;;
45322;SDS011;31382;50.200;8.674;2023-09-18T12:57:39;3.92;;;0.30;;
45322;SDS011;31382;50.200;8.674;2023-09-18T13:02:44;5.53;;;0.50;;
45322;SDS011;31382;50.200;8.674;2023-09-18T13:07:46;3.40;;;0.57;;
45322;SDS011;31382;50.200;8.674;2023-09-18T13:12:49;3.47;;;0.40;;
45322;SDS011;31382;50.200;8.674;2023-09-18T13:17:58;4.68;;;0.30;;
45322;SDS011;31382;50.200;8.674;2023-09-18T13:23:01;1.70;;;0.30;;
45322;SDS011;31382;50.200;8.674;2023-09-18T13:28:05;4.07;;;0.32;;
45322;SDS011;31382;50.200;8.674;2023-09-18T13:33:12;4.47;;;0.35;;
45322;SDS011;31382;50.200;8.674;2023-09-18T13:38:17;1.52;;;0.30;;
45322;SDS011;31382;50.200;8.674;2023-09-18T13:43:19;2.35;;;0.30;;
45322;SDS011;31382;50.200;8.674;2023-09-18T13:48:23;1.85;;;0.30;;
45322;SDS011;31382;50.200;8.674;2023-09-18T13:53:24;3.53;;;0.43;;
45322;SDS011;31382;50.200;8.674;2023-09-18T13:58:27;3.42;;;0.65;;
45322;SDS011;31382;50.200;8.674;2023-09-18T14:03:28;1.40;;;0.35;;
45322;SDS011;31382;50.200;8.674;2023-09-18T14:08:34;2.70;;;0.50;;
45322;SDS011;31382;50.200;8.674;2023-09-18T14:13:36;2.33;;;0.40;;
45322;SDS011;31382;50.200;8.674;2023-09-18T14:18:38;3.83;;;0.22;;
45322;SDS011;31382;50.200;8.674;2023-09-18T14:23:39;1.13;;;0.32;;
45322;SDS011;31382;50.200;8.674;2023-09-18T14:28:41;3.30;;;0.40;;
45322;SDS011;31382;50.200;8.674;2023-09-18T14:33:45;2.25;;;0.40;;
45322;SDS011;31382;50.200;8.674;2023-09-18T14:38:47;5.93;;;0.40;;
45322;SDS011;31382;50.200;8.674;2023-09-18T14:43:49;1.77;;;0.80;;
45322;SDS011;31382;50.200;8.674;2023-09-18T14:48:50;6.10;;;0.55;;
45322;SDS011;31382;50.200;8.674;2023-09-18T14:53:52;1.35;;;0.20;;
45322;SDS011;31382;50.200;8.674;2023-09-18T14:58:55;1.95;;;0.40;;
45322;SDS011;31382;50.200;8.674;2023-09-18T15:03:57;4.72;;;0.80;;
45322;SDS011;31382;50.200;8.674;2023-09-18T15:08:59;0.75;;;0.40;;
45322;SDS011;31382;50.200;8.674;2023-09-18T15:14:01;2.78;;;0.50;;
45322;SDS011;31382;50.200;8.674;2023-09-18T15:19:03;0.60;;;0.30;;
45322;SDS011;31382;50.200;8.674;2023-09-18T15:24:07;2.38;;;0.50;;
45322;SDS011;31382;50.200;8.674;2023-09-18T15:29:09;2.35;;;0.40;;
45322;SDS011;31382;50.200;8.674;2023-09-18T15:34:11;3.28;;;0.68;;
45322;SDS011;31382;50.200;8.674;2023-09-18T15:39:13;2.28;;;0.40;;
45322;SDS011;31382;50.200;8.674;2023-09-18T15:44:14;3.40;;;0.80;;
45322;SDS011;31382;50.200;8.674;2023-09-18T15:49:16;3.25;;;0.50;;
45322;SDS011;31382;50.200;8.674;2023-09-18T15:54:19;2.55;;;0.60;;
45322;SDS011;31382;50.200;8.674;2023-09-18T15:59:21;2.72;;;0.30;;
45322;SDS011;31382;50.200;8.674;2023-09-18T16:04:23;1.58;;;0.60;;
45322;SDS011;31382;50.200;8.674;2023-09-18T16:09:24;3.33;;;0.50;;
45322;SDS011;31382;50.200;8.674;2023-09-18T16:14:26;1.20;;;0.40;;
45322;SDS011;31382;50.200;8.674;2023-09-18T16:19:27;3.40;;;0.85;;
45322;SDS011;31382;50.200;8.674;2023-09-18T16:24:29;5.05;;;1.15;;
45322;SDS011;31382;50.200;8.674;2023-09-18T16:29:31;2.38;;;0.32;;
45322;SDS011;31382;50.200;8.674;2023-09-18T16:34:34;3.40;;;0.50;;
45322;SDS011;31382;50.200;8.674;2023-09-18T16:39:35;3.33;;;0.40;;
45322;SDS011;31382;50.200;8.674;2023-09-18T16:44:37;6.05;;;1.25;;
45322;SDS011;31382;50.200;8.674;2023-09-18T16:49:59;4.43;;;0.40;;
45322;SDS011;31382;50.200;8.674;2023-09-18T16:55:01;2.70;;;0.60;;
45322;SDS011;31382;50.200;8.674;2023-09-18T17:00:06;2.38;;;0.40;;
45322;SDS011;31382;50.200;8.674;2023-09-18T17:05:09;2.28;;;0.98;;
45322;SDS011;31382;50.200;8.674;2023-09-18T17:10:10;2.28;;;0.50;;
45322;SDS011;31382;50.200;8.674;2023-09-18T17:15:12;3.13;;;0.40;;
45322;SDS011;31382;50.200;8.674;2023-09-18T17:20:13;1.55;;;0.50;;
45322;SDS011;31382;50.200;8.674;2023-09-18T17:25:15;2.55;;;0.45;;
45322;SDS011;31382;50.200;8.674;2023-09-18T17:30:17;3.75;;;0.85;;
45322;SDS011;31382;50.200;8.674;2023-09-18T17:35:18;3.35;;;0.50;;
45322;SDS011;31382;50.200;8.674;2023-09-18T17:40:19;1.50;;;0.35;;
45322;SDS011;31382;50.200;8.674;2023-09-18T17:45:21;1.85;;;0.35;;
45322;SDS011;31382;50.200;8.674;2023-09-18T17:50:23;3.58;;;0.70;;
45322;SDS011;31382;50.200;8.674;2023-09-18T17:55:24;4.07;;;0.50;;
45322;SDS011;31382;50.200;8.674;2023-09-18T18:00:26;4.10;;;0.40;;
45322;SDS011;31382;50.200;8.674;2023-09-18T18:05:28;4.28;;;0.60;;
45322;SDS011;31382;50.200;8.674;2023-09-18T18:10:30;4.65;;;0.85;;
45322;SDS011;31382;50.200;8.674;2023-09-18T18:15:35;2.50;;;0.60;;
45322;SDS011;31382;50.200;8.674;2023-09-18T18:20:37;3.33;;;0.50;;
45322;SDS011;31382;50.200;8.674;2023-09-18T18:25:39;2.05;;;0.65;;
45322;SDS011;31382;50.200;8.674;2023-09-18T18:30:41;1.05;;;0.30;;
45322;SDS011;31382;50.200;8.674;2023-09-18T18:35:43;1.85;;;0.40;;
45322;SDS011;31382;50.200;8.674;2023-09-18T18:40:58;3.42;;;0.52;;
45322;SDS011;31382;50.200;8.674;2023-09-18T18:46:00;3.63;;;0.40;;
45322;SDS011;31382;50.200;8.674;2023-09-18T18:51:07;1.60;;;0.40;;
45322;SDS011;31382;50.200;8.674;2023-09-18T18:56:16;5.22;;;0.52;;
45322;SDS011;31382;50.200;8.674;2023-09-18T19:01:19;2.75;;;0.45;;
45322;SDS011;31382;50.200;8.674;2023-09-18T19:06:24;3.97;;;0.53;;
45322;SDS011;31382;50.200;8.674;2023-09-18T19:11:26;5.38;;;0.50;;
45322;SDS011;31382;50.200;8.674;2023-09-18T19:16:27;3.60;;;0.93;;
45322;SDS011;31382;50.200;8.674;2023-09-18T19:21:29;4.05;;;0.60;;
45322;SDS011;31382;50.200;8.674;2023-09-18T19:26:31;4.57;;;0.60;;
45322;SDS011;31382;50.200;8.674;2023-09-18T19:31:33;5.25;;;0.65;;
45322;SDS011;31382;50.200;8.674;2023-09-18T19:36:35;0.90;;;0.40;;
45322;SDS011;31382;50.200;8.674;2023-09-18T19:41:36;1.13;;;0.40;;
45322;SDS011;31382;50.200;8.674;2023-09-18T19:46:39;2.58;;;0.40;;
45322;SDS011;31382;50.200;8.674;2023-09-18T19:51:41;2.05;;;0.40;;
45322;SDS011;31382;50.200;8.674;2023-09-18T19:56:43;4.68;;;0.40;;
45322;SDS011;31382;50.200;8.674;2023-09-18T20:01:44;1.30;;;0.35;;
45322;SDS011;31382;50.200;8.674;2023-09-18T20:06:47;2.20;;;0.40;;
45322;SDS011;31382;50.200;8.674;2023-09-18T20:11:48;2.80;;;0.40;;
45322;SDS011;31382;50.200;8.674;2023-09-18T20:16:51;0.70;;;0.30;;
45322;SDS011;31382;50.200;8.674;2023-09-18T20:21:53;2.13;;;0.30;;
45322;SDS011;31382;50.200;8.674;2023-09-18T20:26:54;7.68;;;0.22;;
45322;SDS011;31382;50.200;8.674;2023-09-18T20:31:56;0.60;;;0.30;;
45322;SDS011;31382;50.200;8.674;2023-09-18T20:36:57;1.92;;;0.30;;
45322;SDS011;31382;50.200;8.674;2023-09-18T20:41:59;1.95;;;0.82;;
45322;SDS011;31382;50.200;8.674;2023-09-18T20:47:01;0.77;;;0.20;;
45322;SDS011;31382;50.200;8.674;2023-09-18T20:52:02;2.20;;;0.50;;
45322;SDS011;31382;50.200;8.674;2023-09-18T20:57:04;1.38;;;0.57;;
45322;SDS011;31382;50.200;8.674;2023-09-18T21:02:07;2.63;;;0.13;;
45322;SDS011;31382;50.200;8.674;2023-09-18T21:07:11;1.65;;;0.15;;
45322;SDS011;31382;50.200;8.674;2023-09-18T21:12:13;0.60;;;0.10;;
45322;SDS011;31382;50.200;8.674;2023-09-18T21:17:15;0.82;;;0.10;;
45322;SDS011;31382;50.200;8.674;2023-09-18T21:22:16;1.10;;;0.10;;
45322;SDS011;31382;50.200;8.674;2023-09-18T21:27:18;1.30;;;0.20;;
45322;SDS011;31382;50.200;8.674;2023-09-18T21:32:19;1.15;;;0.20;;
45322;SDS011;31382;50.200;8.674;2023-09-18T21:37:21;0.80;;;0.17;;
45322;SDS011;31382;50.200;8.674;2023-09-18T21:42:22;2.58;;;0.10;;
45322;SDS011;31382;50.200;8.674;2023-09-18T21:47:24;1.52;;;0.10;;
45322;SDS011;31382;50.200;8.674;2023-09-18T21:52:26;5.10;;;0.35;;
45322;SDS011;31382;50.200;8.674;2023-09-18T21:57:27;1.77;;;0.20;;
45322;SDS011;31382;50.200;8.674;2023-09-18T22:02:29;3.30;;;0.50;;
45322;SDS011;31382;50.200;8.674;2023-09-18T22:07:30;1.98;;;0.32;;
45322;SDS011;31382;50.200;8.674;2023-09-18T22:12:32;2.15;;;0.50;;
45322;SDS011;31382;50.200;8.674;2023-09-18T22:17:34;2.13;;;0.20;;
45322;SDS011;31382;50.200;8.674;2023-09-18T22:22:36;2.58;;;0.30;;
45322;SDS011;31382;50.200;8.674;2023-09-18T22:27:38;2.55;;;0.28;;
45322;SDS011;31382;50.200;8.674;2023-09-18T22:32:40;4.97;;;0.60;;
45322;SDS011;31382;50.200;8.674;2023-09-18T22:37:41;1.27;;;0.30;;
45322;SDS011;31382;50.200;8.674;2023-09-18T22:59:03;6.32;;;0.50;;
45322;SDS011;31382;50.200;8.674;2023-09-18T23:04:07;1.42;;;0.30;;
45322;SDS011;31382;50.200;8.674;2023-09-18T23:09:11;1.33;;;0.70;;
45322;SDS011;31382;50.200;8.674;2023-09-18T23:19:21;4.03;;;0.63;;
45322;SDS011;31382;50.200;8.674;2023-09-18T23:24:22;5.30;;;1.15;;
45322;SDS011;31382;50.200;8.674;2023-09-18T23:29:24;2.00;;;0.50;;
45322;SDS011;31382;50.200;8.674;2023-09-18T23:34:27;1.00;;;0.50;;
45322;SDS011;31382;50.200;8.674;2023-09-18T23:39:28;1.50;;;0.40;;
45322;SDS011;31382;50.200;8.674;2023-09-18T23:44:30;0.75;;;0.30;;
45322;SDS011;31382;50.200;8.674;2023-09-18T23:49:33;3.22;;;0.40;;
45322;SDS011;31382;50.200;8.674;2023-09-18T23:54:37;1.92;;;0.40;;
45322;SDS011;31382;50.200;8.674;2023-09-18T23:59:39;3.05;;;0.30;;
